Atwell, WV

5:51 AM EDT on July 23, 2014 (GMT -0400)
Tazewell County (KJFZ) Elev 2651 ft | 37.06 °N, 81.80 °W | Change Station

Current weather conditions updated 16 minutes ago

Clear
Clear
71 °F
Feels Like 71 °F
N
0
Wind Variable Wind from North

Today is forecast to be Warmer than yesterday. Showers and thunderstorms late.

Today
High -- | Low -- °F
--% Chance of Precip.
Yesterday
High -- | Low -- °F
Precip. -- in
6:24 AM 8:42 PM
Waning Crescent, 11% visible
Pressure 30.17 in
Visibility 10.0 miles
Clouds Clear
Dew Point 66 °F
Humidity 86%
Rainfall 0.00 in
Snow Depth Not available.
UV 0 out of 12
Pollen 4.10 out of 12
Air Quality Not available.
Flu Activity Not available.
METAR KJFZ 230935Z AUTO 00000KT 10SM CLR 22/19 A3017 RMK AO2 T02160191

More Conditions Fewer Conditions

Pressure 30.17 in
Visibility 10.0 miles
Clouds Clear
Dew Point 66 °F
Humidity 86%
Rainfall 0.00 in
Snow Depth Not available.
UV 0 out of 12
Pollen 4.10 out of 12
Air Quality Not available.
Flu Activity Not available.
METAR KJFZ 230935Z AUTO 00000KT 10SM CLR 22/19 A3017 RMK AO2 T02160191

More Conditions Fewer Conditions

10-Day Weather Forecast

Almanac

Astronomy

Jul. 23, 2014 Rise Set
Actual Time 6:24 AM EDT 8:42 PM EDT
Civil Twilight 5:54 AM EDT 9:11 PM EDT
Nautical Twilight 5:18 AM EDT 9:48 PM EDT
Astronomical Twilight 4:38 AM EDT 10:27 PM EDT
Moon 3:41 AM EDT 6:10 PM EDT
Length of Visible Light 15h 17m
Length of Day
14h 18m
Tomorrow will be 1m 32s shorter.
Waning Crescent, 11% of the Moon is Illuminated
Today
Waning Crescent
Jul 26
New
Aug 3
First Quarter
Aug 10
Full
Aug 17
Last Quarter

Today's Extremes

State Highs State Lows

Community

WunderPhotos

Upload Photos

1,736,535 photos uploaded!

Nearby

Snow Depth

Station Depth Elevation
No new snow has been reported.

Earthquake Activity

City Distance Mag. Time & Date
No recent earthquake activity has been reported nearby.
Minimum magnitude displayed is 2.5.

Coastal Water Temperatures

Place Temperature
No Stations Reporting

Nearby Weather Stations

There are no personal weather stations in this area.